createdAt,value
2022-11-20T00:00:21.932Z,997.69
2022-11-20T00:01:21.967Z,997.72
2022-11-20T00:02:21.938Z,997.72
2022-11-20T00:03:21.892Z,997.71
2022-11-20T00:04:21.886Z,997.75
2022-11-20T00:05:21.861Z,997.73
2022-11-20T00:06:21.860Z,997.71
2022-11-20T00:07:21.908Z,997.72
2022-11-20T00:08:21.813Z,997.69
2022-11-20T00:09:22.173Z,997.70
2022-11-20T00:10:21.802Z,997.71
2022-11-20T00:11:21.776Z,997.65
2022-11-20T00:12:21.794Z,997.65
2022-11-20T00:13:21.751Z,997.62
2022-11-20T00:14:21.742Z,997.63
2022-11-20T00:15:21.737Z,997.61
2022-11-20T00:16:21.729Z,997.63
2022-11-20T00:17:21.711Z,997.59
2022-11-20T00:18:21.723Z,997.55
2022-11-20T00:19:22.124Z,997.53
2022-11-20T00:20:21.660Z,997.55
2022-11-20T00:21:22.069Z,997.58
2022-11-20T00:22:21.666Z,997.60
2022-11-20T00:23:21.653Z,997.59
2022-11-20T00:24:21.623Z,997.57
2022-11-20T00:25:21.592Z,997.58
2022-11-20T00:26:21.591Z,997.55
2022-11-20T00:27:21.591Z,997.51
2022-11-20T00:28:21.579Z,997.49
2022-11-20T00:29:21.758Z,997.53
2022-11-20T00:30:21.530Z,997.50
2022-11-20T00:31:21.523Z,997.54
2022-11-20T00:32:21.532Z,997.54
2022-11-20T00:33:21.478Z,997.59
2022-11-20T00:34:21.501Z,997.59
2022-11-20T00:35:21.461Z,997.59
2022-11-20T00:36:21.450Z,997.53
2022-11-20T00:37:21.452Z,997.56
2022-11-20T00:38:21.420Z,997.58
2022-11-20T00:39:21.776Z,997.56
2022-11-20T00:40:21.410Z,997.58
2022-11-20T00:41:21.388Z,997.55
2022-11-20T00:42:21.392Z,997.51
2022-11-20T00:43:21.372Z,997.51
2022-11-20T00:44:21.339Z,997.51
2022-11-20T00:45:21.328Z,997.52
2022-11-20T00:46:21.340Z,997.47
2022-11-20T00:47:21.326Z,997.47
2022-11-20T00:48:21.336Z,997.44
2022-11-20T00:49:21.603Z,997.51
2022-11-20T00:50:21.313Z,997.49
2022-11-20T00:51:21.309Z,997.49
2022-11-20T00:52:21.279Z,997.49
2022-11-20T00:53:21.261Z,997.50
2022-11-20T00:54:21.233Z,997.46
2022-11-20T00:55:21.195Z,997.45
2022-11-20T00:56:21.217Z,997.43
2022-11-20T00:57:21.206Z,997.49
2022-11-20T00:58:21.218Z,997.52
2022-11-20T00:59:21.495Z,997.54
2022-11-20T01:00:21.129Z,997.55
2022-11-20T01:01:21.290Z,997.60
2022-11-20T01:02:21.139Z,997.61
2022-11-20T01:03:26.662Z,997.60
2022-11-20T01:04:22.078Z,997.62
2022-11-20T01:05:21.074Z,997.61
2022-11-20T01:06:21.050Z,997.61
2022-11-20T01:07:21.128Z,997.56
2022-11-20T01:08:21.119Z,997.58
2022-11-20T01:09:21.264Z,997.55
2022-11-20T01:10:21.017Z,997.54
2022-11-20T01:11:21.038Z,997.54
2022-11-20T01:12:21.046Z,997.50
2022-11-20T01:13:25.493Z,997.51
2022-11-20T01:14:21.034Z,997.53
2022-11-20T01:15:20.993Z,997.56
2022-11-20T01:16:20.948Z,997.58
2022-11-20T01:17:21.007Z,997.54
2022-11-20T01:18:20.906Z,997.52
2022-11-20T01:19:21.142Z,997.51
2022-11-20T01:20:20.856Z,997.48
2022-11-20T01:21:20.877Z,997.48
2022-11-20T01:22:20.856Z,997.50
2022-11-20T01:23:20.836Z,997.49
2022-11-20T01:24:20.828Z,997.52
2022-11-20T01:25:20.856Z,997.52
2022-11-20T01:26:20.786Z,997.58
2022-11-20T01:27:20.818Z,997.65
2022-11-20T01:28:20.756Z,997.60
2022-11-20T01:29:21.081Z,997.61
2022-11-20T01:30:20.736Z,997.55
2022-11-20T01:31:20.727Z,997.57
2022-11-20T01:32:20.706Z,997.52
2022-11-20T01:33:20.684Z,997.46
2022-11-20T01:34:20.686Z,997.46
2022-11-20T01:35:20.664Z,997.45
2022-11-20T01:36:20.647Z,997.45
2022-11-20T01:37:20.664Z,997.45
2022-11-20T01:38:20.615Z,997.48
2022-11-20T01:39:20.908Z,997.49
2022-11-20T01:40:20.607Z,997.51
2022-11-20T01:41:20.594Z,997.50
2022-11-20T01:42:20.596Z,997.52
2022-11-20T01:43:20.580Z,997.50
2022-11-20T01:44:20.554Z,997.52
2022-11-20T01:45:20.536Z,997.49
2022-11-20T01:46:20.526Z,997.50
2022-11-20T01:47:20.527Z,997.49
2022-11-20T01:48:20.514Z,997.44
2022-11-20T01:49:20.695Z,997.44
2022-11-20T01:50:20.570Z,997.42
2022-11-20T01:51:20.455Z,997.40
2022-11-20T01:52:20.466Z,997.42
2022-11-20T01:53:20.436Z,997.38
2022-11-20T01:54:20.415Z,997.40
2022-11-20T01:55:20.436Z,997.36
2022-11-20T01:56:20.395Z,997.38
2022-11-20T01:57:20.397Z,997.36
2022-11-20T01:58:20.366Z,997.32
2022-11-20T01:59:20.689Z,997.33
2022-11-20T02:00:20.358Z,997.33
2022-11-20T02:01:20.381Z,997.30
2022-11-20T02:02:20.325Z,997.27
2022-11-20T02:03:20.315Z,997.29
2022-11-20T02:04:20.361Z,997.30
2022-11-20T02:05:20.285Z,997.32
2022-11-20T02:06:20.256Z,997.29
2022-11-20T02:07:20.300Z,997.27
2022-11-20T02:08:20.246Z,997.32
2022-11-20T02:09:20.606Z,997.36
2022-11-20T02:10:20.256Z,997.37
2022-11-20T02:11:20.206Z,997.35
2022-11-20T02:12:20.205Z,997.37
2022-11-20T02:13:20.185Z,997.34
2022-11-20T02:14:20.166Z,997.31
2022-11-20T02:15:20.166Z,997.31
2022-11-20T02:16:20.143Z,997.33
2022-11-20T02:17:20.114Z,997.31
2022-11-20T02:18:20.187Z,997.29
2022-11-20T02:19:20.233Z,997.26
2022-11-20T02:20:20.136Z,997.23
2022-11-20T02:21:20.067Z,997.24
2022-11-20T02:22:20.044Z,997.28
2022-11-20T02:23:20.056Z,997.25
2022-11-20T02:24:20.034Z,997.23
2022-11-20T02:25:20.026Z,997.22
2022-11-20T02:26:19.995Z,997.22
2022-11-20T02:27:19.995Z,997.27
2022-11-20T02:28:20.033Z,997.26
2022-11-20T02:29:20.353Z,997.23
2022-11-20T02:30:19.934Z,997.23
2022-11-20T02:31:19.988Z,997.21
2022-11-20T02:32:19.922Z,997.20
2022-11-20T02:33:19.932Z,997.18
2022-11-20T02:34:19.917Z,997.20
2022-11-20T02:35:19.884Z,997.21
2022-11-20T02:36:19.863Z,997.18
2022-11-20T02:37:19.846Z,997.22
2022-11-20T02:38:19.853Z,997.22
2022-11-20T02:39:20.166Z,997.23
2022-11-20T02:40:19.813Z,997.22
2022-11-20T02:41:19.801Z,997.23
2022-11-20T02:42:19.814Z,997.18
2022-11-20T02:43:19.791Z,997.18
2022-11-20T02:44:19.764Z,997.22
2022-11-20T02:45:19.751Z,997.27
2022-11-20T02:46:19.727Z,997.24
2022-11-20T02:47:19.736Z,997.20
2022-11-20T02:48:19.741Z,997.19
2022-11-20T02:49:20.136Z,997.17
2022-11-20T02:50:19.673Z,997.21
2022-11-20T02:51:19.672Z,997.19
2022-11-20T02:52:19.648Z,997.25
2022-11-20T02:53:19.663Z,997.26
2022-11-20T02:54:19.636Z,997.24
2022-11-20T02:55:19.621Z,997.16
2022-11-20T02:56:19.600Z,997.15
2022-11-20T02:57:19.593Z,997.21
2022-11-20T02:58:19.609Z,997.22
2022-11-20T02:59:19.960Z,997.19
2022-11-20T03:00:19.551Z,997.26
2022-11-20T03:01:19.606Z,997.23
2022-11-20T03:02:19.522Z,997.21
2022-11-20T03:03:19.533Z,997.15
2022-11-20T03:04:19.532Z,997.14
2022-11-20T03:05:19.482Z,997.11
2022-11-20T03:06:19.473Z,997.14
2022-11-20T03:07:19.534Z,997.17
2022-11-20T03:08:19.460Z,997.18
2022-11-20T03:09:19.871Z,997.17
2022-11-20T03:10:19.413Z,997.14
2022-11-20T03:11:19.412Z,997.10
2022-11-20T03:12:19.393Z,997.08
2022-11-20T03:13:19.433Z,997.04
2022-11-20T03:14:19.362Z,997.02
2022-11-20T03:15:19.351Z,997.00
2022-11-20T03:16:19.345Z,996.98
2022-11-20T03:17:19.331Z,996.97
2022-11-20T03:18:19.331Z,996.98
2022-11-20T03:19:19.753Z,997.00
2022-11-20T03:20:19.290Z,997.00
2022-11-20T03:21:19.272Z,997.04
2022-11-20T03:22:19.293Z,997.05
2022-11-20T03:23:19.271Z,997.04
2022-11-20T03:24:19.230Z,997.00
2022-11-20T03:25:19.221Z,996.99
2022-11-20T03:26:19.212Z,997.03
2022-11-20T03:27:19.191Z,996.99
2022-11-20T03:28:19.195Z,996.97
2022-11-20T03:29:19.534Z,996.90
2022-11-20T03:30:19.171Z,996.89
2022-11-20T03:31:19.140Z,996.90
2022-11-20T03:32:19.121Z,996.99
2022-11-20T03:33:19.142Z,997.00
2022-11-20T03:34:19.098Z,997.02
2022-11-20T03:35:19.092Z,997.04
2022-11-20T03:36:19.078Z,997.00
2022-11-20T03:37:19.060Z,997.01
2022-11-20T03:38:19.059Z,996.99
2022-11-20T03:39:19.318Z,997.03
2022-11-20T03:40:19.020Z,997.02
2022-11-20T03:41:19.011Z,997.07
2022-11-20T03:42:18.983Z,997.04
2022-11-20T03:43:18.980Z,997.06
2022-11-20T03:44:18.990Z,997.08
2022-11-20T03:45:18.963Z,997.08
2022-11-20T03:46:18.939Z,997.05
2022-11-20T03:47:18.931Z,997.03
2022-11-20T03:48:18.909Z,997.00
2022-11-20T03:49:19.048Z,996.98
2022-11-20T03:50:18.894Z,996.96
2022-11-20T03:51:18.878Z,996.93
2022-11-20T03:52:18.859Z,996.76
2022-11-20T03:53:18.858Z,996.75
2022-11-20T03:54:18.861Z,996.76
2022-11-20T03:55:18.819Z,996.78
2022-11-20T03:56:18.810Z,996.84
2022-11-20T03:57:18.799Z,996.88
2022-11-20T03:58:18.777Z,996.81
2022-11-20T03:59:19.110Z,996.85
2022-11-20T04:00:18.746Z,996.81
2022-11-20T04:01:18.797Z,996.79
2022-11-20T04:02:18.798Z,996.85
2022-11-20T04:03:18.727Z,996.80
2022-11-20T04:04:18.720Z,996.83
2022-11-20T04:05:18.690Z,996.84
2022-11-20T04:06:18.666Z,996.84
2022-11-20T04:07:18.719Z,996.87
2022-11-20T04:08:18.709Z,996.92
2022-11-20T04:09:19.076Z,996.97
2022-11-20T04:10:18.648Z,996.99
2022-11-20T04:11:18.628Z,996.95
2022-11-20T04:12:18.666Z,997.03
2022-11-20T04:13:18.589Z,997.00
2022-11-20T04:14:18.595Z,997.08
2022-11-20T04:15:18.559Z,997.05
2022-11-20T04:16:18.546Z,997.07
2022-11-20T04:17:18.532Z,997.05
2022-11-20T04:18:18.509Z,996.98
2022-11-20T04:19:18.773Z,997.00
2022-11-20T04:20:18.489Z,996.96
2022-11-20T04:21:18.478Z,996.94
2022-11-20T04:22:18.470Z,996.93
2022-11-20T04:23:18.468Z,996.90
2022-11-20T04:24:18.457Z,996.90
2022-11-20T04:25:18.458Z,996.91
2022-11-20T04:26:18.513Z,996.89
2022-11-20T04:27:18.449Z,996.87
2022-11-20T04:28:18.534Z,996.89
2022-11-20T04:29:18.581Z,996.93
2022-11-20T04:30:19.099Z,996.94
2022-11-20T04:31:18.350Z,996.91
2022-11-20T04:32:18.338Z,996.94
2022-11-20T04:33:18.378Z,996.96
2022-11-20T04:34:18.338Z,996.99
2022-11-20T04:35:18.368Z,996.95
2022-11-20T04:36:18.317Z,996.97
2022-11-20T04:37:18.346Z,997.00
2022-11-20T04:38:18.309Z,996.99
2022-11-20T04:39:18.713Z,997.00
2022-11-20T04:40:18.242Z,996.99
2022-11-20T04:41:25.403Z,996.97
2022-11-20T04:42:18.202Z,996.97
2022-11-20T04:43:18.192Z,996.95
2022-11-20T04:44:18.203Z,996.97
2022-11-20T04:45:18.202Z,997.01
2022-11-20T04:46:18.156Z,996.97
2022-11-20T04:47:18.143Z,996.95
2022-11-20T04:48:18.121Z,996.88
2022-11-20T04:49:18.180Z,996.89
2022-11-20T04:50:18.100Z,996.89
2022-11-20T04:51:18.073Z,996.90
2022-11-20T04:52:18.062Z,996.91
2022-11-20T04:53:18.093Z,996.92
2022-11-20T04:54:18.053Z,996.86
2022-11-20T04:55:18.033Z,996.89
2022-11-20T04:56:18.025Z,996.85
2022-11-20T04:57:18.006Z,996.84
2022-11-20T04:58:17.989Z,996.82
2022-11-20T04:59:18.000Z,996.81
2022-11-20T05:00:17.962Z,996.80
2022-11-20T05:01:18.053Z,996.81
2022-11-20T05:02:17.931Z,996.77
2022-11-20T05:03:17.947Z,996.77
2022-11-20T05:04:17.937Z,996.73
2022-11-20T05:05:17.901Z,996.71
2022-11-20T05:06:17.891Z,996.68
2022-11-20T05:07:17.900Z,996.63
2022-11-20T05:08:17.860Z,996.63
2022-11-20T05:09:17.849Z,996.64
2022-11-20T05:10:17.849Z,996.64
2022-11-20T05:11:17.822Z,996.67
2022-11-20T05:12:17.799Z,996.65
2022-11-20T05:13:17.788Z,996.67
2022-11-20T05:14:17.805Z,996.71
2022-11-20T05:15:17.800Z,996.72
2022-11-20T05:16:17.762Z,996.72
2022-11-20T05:17:17.742Z,996.66
2022-11-20T05:18:17.729Z,996.69
2022-11-20T05:19:17.830Z,996.66
2022-11-20T05:20:17.721Z,996.66
2022-11-20T05:21:17.678Z,996.59
2022-11-20T05:22:17.671Z,996.56
2022-11-20T05:23:17.660Z,996.58
2022-11-20T05:24:17.650Z,996.58
2022-11-20T05:25:17.655Z,996.60
2022-11-20T05:26:17.618Z,996.61
2022-11-20T05:27:17.608Z,996.60
2022-11-20T05:28:17.588Z,996.63
2022-11-20T05:29:17.574Z,996.65
2022-11-20T05:30:17.592Z,996.63
2022-11-20T05:31:21.949Z,996.64
2022-11-20T05:32:18.536Z,996.64
2022-11-20T05:33:17.519Z,996.68
2022-11-20T05:34:17.517Z,996.68
2022-11-20T05:35:17.518Z,996.70
2022-11-20T05:36:17.487Z,996.71
2022-11-20T05:37:17.478Z,996.62
2022-11-20T05:38:17.465Z,996.56
2022-11-20T05:39:17.447Z,996.57
2022-11-20T05:40:17.447Z,996.60
2022-11-20T05:41:17.417Z,996.56
2022-11-20T05:42:17.409Z,996.57
2022-11-20T05:43:17.403Z,996.54
2022-11-20T05:44:17.397Z,996.53
2022-11-20T05:45:17.376Z,996.53
2022-11-20T05:46:17.358Z,996.53
2022-11-20T05:47:17.335Z,996.48
2022-11-20T05:48:17.326Z,996.44
2022-11-20T05:49:17.316Z,996.45
2022-11-20T05:50:17.322Z,996.51
2022-11-20T05:51:17.288Z,996.52
2022-11-20T05:52:17.279Z,996.45
2022-11-20T05:53:17.255Z,996.44
2022-11-20T05:54:17.272Z,996.39
2022-11-20T05:55:17.305Z,996.40
2022-11-20T05:56:17.311Z,996.38
2022-11-20T05:57:17.214Z,996.42
2022-11-20T05:58:17.218Z,996.43
2022-11-20T05:59:17.177Z,996.37
2022-11-20T06:00:17.219Z,996.42
2022-11-20T06:01:17.186Z,996.39
2022-11-20T06:02:17.273Z,996.39
2022-11-20T06:03:17.206Z,996.38
2022-11-20T06:04:17.163Z,996.39
2022-11-20T06:05:17.151Z,996.40
2022-11-20T06:06:17.126Z,996.41
2022-11-20T06:07:17.103Z,996.42
2022-11-20T06:08:17.068Z,996.39
2022-11-20T06:09:17.096Z,996.46
2022-11-20T06:10:17.060Z,996.45
2022-11-20T06:11:17.031Z,996.44
2022-11-20T06:12:17.017Z,996.47
2022-11-20T06:13:16.999Z,996.46
2022-11-20T06:14:16.997Z,996.47
2022-11-20T06:15:16.985Z,996.45
2022-11-20T06:16:16.971Z,996.49
2022-11-20T06:17:16.966Z,996.43
2022-11-20T06:18:16.940Z,996.41
2022-11-20T06:19:16.942Z,996.41
2022-11-20T06:20:16.973Z,996.41
2022-11-20T06:21:16.899Z,996.41
2022-11-20T06:22:16.886Z,996.46
2022-11-20T06:23:16.867Z,996.47
2022-11-20T06:24:16.884Z,996.45
2022-11-20T06:25:16.847Z,996.48
2022-11-20T06:26:16.843Z,996.49
2022-11-20T06:27:16.818Z,996.51
2022-11-20T06:28:16.806Z,996.49
2022-11-20T06:29:16.788Z,996.48
2022-11-20T06:30:16.818Z,996.49
2022-11-20T06:31:16.756Z,996.44
2022-11-20T06:32:16.767Z,996.50
2022-11-20T06:33:16.746Z,996.52
2022-11-20T06:34:16.733Z,996.54
2022-11-20T06:35:16.724Z,996.56
2022-11-20T06:36:16.726Z,996.55
2022-11-20T06:37:16.678Z,996.53
2022-11-20T06:38:16.665Z,996.52
2022-11-20T06:39:16.657Z,996.56
2022-11-20T06:40:16.649Z,996.55
2022-11-20T06:41:16.655Z,996.58
2022-11-20T06:42:16.625Z,996.56
2022-11-20T06:43:16.605Z,996.59
2022-11-20T06:44:16.607Z,996.59
2022-11-20T06:45:16.584Z,996.64
2022-11-20T06:46:16.593Z,996.64
2022-11-20T06:47:16.545Z,996.66
2022-11-20T06:48:16.561Z,996.66
2022-11-20T06:49:16.533Z,996.66
2022-11-20T06:50:16.510Z,996.61
2022-11-20T06:51:16.515Z,996.67
2022-11-20T06:52:16.485Z,996.66
2022-11-20T06:53:16.463Z,996.67
2022-11-20T06:54:16.474Z,996.70
2022-11-20T06:55:16.449Z,996.71
2022-11-20T06:56:16.445Z,996.74
2022-11-20T06:57:16.426Z,996.68
2022-11-20T06:58:16.406Z,996.76
2022-11-20T06:59:16.394Z,996.77
2022-11-20T07:00:16.392Z,996.77
2022-11-20T07:01:16.433Z,996.79
2022-11-20T07:02:16.355Z,996.78
2022-11-20T07:03:16.333Z,996.75
2022-11-20T07:04:16.339Z,996.77
2022-11-20T07:05:16.315Z,996.76
2022-11-20T07:06:16.322Z,996.80
2022-11-20T07:07:16.334Z,996.78
2022-11-20T07:08:16.323Z,996.79
2022-11-20T07:09:16.284Z,996.79
2022-11-20T07:10:16.293Z,996.78
2022-11-20T07:11:16.245Z,996.80
2022-11-20T07:12:16.233Z,996.78
2022-11-20T07:13:16.203Z,996.78
2022-11-20T07:14:16.215Z,996.80
2022-11-20T07:15:16.181Z,996.77
2022-11-20T07:16:16.203Z,996.82
2022-11-20T07:17:16.154Z,996.85
2022-11-20T07:18:16.243Z,996.88
2022-11-20T07:19:16.145Z,996.85
2022-11-20T07:20:16.123Z,996.83
2022-11-20T07:21:16.117Z,996.85
2022-11-20T07:22:16.104Z,996.86
2022-11-20T07:23:16.142Z,996.85
2022-11-20T07:24:16.112Z,996.87
2022-11-20T07:25:16.073Z,996.84
2022-11-20T07:26:16.079Z,996.84
2022-11-20T07:27:16.023Z,996.92
2022-11-20T07:28:16.034Z,996.90
2022-11-20T07:29:16.003Z,996.86
2022-11-20T07:30:15.993Z,996.85
2022-11-20T07:31:19.022Z,996.80
2022-11-20T07:32:15.971Z,996.85
2022-11-20T07:33:15.943Z,996.84
2022-11-20T07:34:15.942Z,996.87
2022-11-20T07:35:15.923Z,996.95
2022-11-20T07:36:15.932Z,996.96
2022-11-20T07:37:15.900Z,996.90
2022-11-20T07:38:16.006Z,996.88
2022-11-20T07:39:15.864Z,996.87
2022-11-20T07:40:15.863Z,996.89
2022-11-20T07:41:15.860Z,996.91
2022-11-20T07:42:15.833Z,997.00
2022-11-20T07:43:15.811Z,996.99
2022-11-20T07:44:15.811Z,997.02
2022-11-20T07:45:15.787Z,997.00
2022-11-20T07:46:15.791Z,996.98
2022-11-20T07:47:15.763Z,996.97
2022-11-20T07:48:15.753Z,997.02
2022-11-20T07:49:15.734Z,997.05
2022-11-20T07:50:15.731Z,997.03
2022-11-20T07:51:15.741Z,997.08
2022-11-20T07:52:15.702Z,997.07
2022-11-20T07:53:15.741Z,997.05
2022-11-20T07:54:15.679Z,997.00
2022-11-20T07:55:15.651Z,997.03
2022-11-20T07:56:15.661Z,997.05
2022-11-20T07:57:15.621Z,997.04
2022-11-20T07:58:15.622Z,997.06
2022-11-20T07:59:15.609Z,997.05
2022-11-20T08:00:15.601Z,997.06
2022-11-20T08:01:15.637Z,997.07
2022-11-20T08:02:15.584Z,997.07
2022-11-20T08:03:18.095Z,997.07
2022-11-20T08:04:16.540Z,997.12
2022-11-20T08:05:15.540Z,997.14
2022-11-20T08:06:15.530Z,997.13
2022-11-20T08:07:15.563Z,997.14
2022-11-20T08:08:15.490Z,997.14
2022-11-20T08:09:15.468Z,997.16
2022-11-20T08:10:15.460Z,997.15
2022-11-20T08:11:15.461Z,997.18
2022-11-20T08:12:15.439Z,997.17
2022-11-20T08:13:15.517Z,997.14
2022-11-20T08:14:15.422Z,997.12
2022-11-20T08:15:15.389Z,997.10
2022-11-20T08:16:15.400Z,997.09
2022-11-20T08:17:15.369Z,997.10
2022-11-20T08:18:30.484Z,997.13
2022-11-20T08:19:16.338Z,997.16
2022-11-20T08:20:15.320Z,997.12
2022-11-20T08:21:15.338Z,997.13
2022-11-20T08:22:15.307Z,997.13
2022-11-20T08:23:15.291Z,997.10
2022-11-20T08:24:15.289Z,997.08
2022-11-20T08:25:15.258Z,997.15
2022-11-20T08:26:15.279Z,997.18
2022-11-20T08:27:15.229Z,997.20
2022-11-20T08:28:20.803Z,997.23
2022-11-20T08:29:16.248Z,997.24
2022-11-20T08:30:15.199Z,997.19
2022-11-20T08:31:15.197Z,997.19
2022-11-20T08:32:15.240Z,997.16
2022-11-20T08:33:15.240Z,997.12
2022-11-20T08:34:18.955Z,997.11
2022-11-20T08:35:15.145Z,997.12
2022-11-20T08:36:15.139Z,997.10
2022-11-20T08:37:15.110Z,997.06
2022-11-20T08:38:15.089Z,997.05
2022-11-20T08:39:15.076Z,997.03
2022-11-20T08:40:19.451Z,997.02
2022-11-20T08:41:15.058Z,997.02
2022-11-20T08:42:15.052Z,997.02
2022-11-20T08:43:15.011Z,997.01
2022-11-20T08:44:15.009Z,997.07
2022-11-20T08:45:14.988Z,997.08
2022-11-20T08:46:15.020Z,997.09
2022-11-20T08:47:14.967Z,997.09
2022-11-20T08:48:14.958Z,997.13
2022-11-20T08:49:14.948Z,997.13
2022-11-20T08:50:14.928Z,997.14
2022-11-20T08:51:14.941Z,997.12
2022-11-20T08:52:14.907Z,997.10
2022-11-20T08:53:14.888Z,997.12
2022-11-20T08:54:14.880Z,997.11
2022-11-20T08:55:14.909Z,997.16
2022-11-20T08:56:14.889Z,997.15
2022-11-20T08:57:14.838Z,997.17
2022-11-20T08:58:14.817Z,997.14
2022-11-20T09:00:15.800Z,997.08
2022-11-20T09:01:14.814Z,997.11
2022-11-20T09:02:14.785Z,997.10
2022-11-20T09:03:14.777Z,997.14
2022-11-20T09:04:14.757Z,997.16
2022-11-20T09:05:14.725Z,997.15
2022-11-20T09:06:14.728Z,997.14
2022-11-20T09:07:14.791Z,997.12
2022-11-20T09:08:14.687Z,997.15
2022-11-20T09:09:14.759Z,997.16
2022-11-20T09:10:30.179Z,997.15
2022-11-20T09:11:15.746Z,997.18
2022-11-20T09:12:14.667Z,997.19
2022-11-20T09:13:14.618Z,997.18
2022-11-20T09:14:14.601Z,997.19
2022-11-20T09:15:14.611Z,997.16
2022-11-20T09:16:14.585Z,997.15
2022-11-20T09:17:14.587Z,997.12
2022-11-20T09:18:14.560Z,997.13
2022-11-20T09:19:40.661Z,997.14
2022-11-20T09:20:15.576Z,997.10
2022-11-20T09:21:14.633Z,997.12
2022-11-20T09:22:14.516Z,997.12
2022-11-20T09:23:14.496Z,997.16
2022-11-20T09:24:14.476Z,997.15
2022-11-20T09:25:14.492Z,997.12
2022-11-20T09:26:14.458Z,997.12
2022-11-20T09:27:14.487Z,997.10
2022-11-20T09:28:14.475Z,997.10
2022-11-20T09:29:14.575Z,997.07
2022-11-20T09:30:14.757Z,997.12
2022-11-20T09:31:14.424Z,997.08
2022-11-20T09:32:14.456Z,997.12
2022-11-20T09:33:14.366Z,997.12
2022-11-20T09:34:15.007Z,997.17
2022-11-20T09:35:14.386Z,997.20
2022-11-20T09:36:14.334Z,997.21
2022-11-20T09:37:14.375Z,997.17
2022-11-20T09:38:14.525Z,997.15
2022-11-20T09:39:14.422Z,997.15
2022-11-20T09:40:14.355Z,997.18
2022-11-20T09:41:14.284Z,997.17
2022-11-20T09:42:14.474Z,997.22
2022-11-20T09:43:14.406Z,997.22
2022-11-20T09:44:14.213Z,997.24
2022-11-20T09:45:14.533Z,997.23
2022-11-20T09:46:14.183Z,997.26
2022-11-20T09:47:14.474Z,997.27
2022-11-20T09:48:14.332Z,997.26
2022-11-20T09:49:14.327Z,997.23
2022-11-20T09:50:14.507Z,997.18
2022-11-20T09:51:14.336Z,997.16
2022-11-20T09:52:14.245Z,997.17
2022-11-20T09:53:14.175Z,997.18
2022-11-20T09:54:14.236Z,997.22
2022-11-20T09:55:14.062Z,997.22
2022-11-20T09:56:17.011Z,997.21
2022-11-20T09:57:15.035Z,997.26
2022-11-20T09:58:14.004Z,997.22
2022-11-20T09:59:14.004Z,997.24
2022-11-20T10:00:13.979Z,997.22
2022-11-20T10:01:14.314Z,997.15
2022-11-20T10:02:13.985Z,997.17
2022-11-20T10:03:13.962Z,997.17
2022-11-20T10:04:14.345Z,997.16
2022-11-20T10:05:13.946Z,997.16
2022-11-20T10:06:14.072Z,997.22
2022-11-20T10:08:14.922Z,997.19
2022-11-20T10:09:13.874Z,997.17
2022-11-20T10:10:15.213Z,997.19
2022-11-20T10:11:14.144Z,997.14
2022-11-20T10:12:13.886Z,997.14
2022-11-20T10:13:14.241Z,997.10
2022-11-20T10:14:15.025Z,997.06
2022-11-20T10:15:14.158Z,997.05
2022-11-20T10:16:13.819Z,996.99
2022-11-20T10:17:13.837Z,996.98
2022-11-20T10:18:13.780Z,996.98
2022-11-20T10:19:13.789Z,996.95
2022-11-20T10:20:13.808Z,996.96
2022-11-20T10:21:13.743Z,996.95
2022-11-20T10:22:14.173Z,996.93
2022-11-20T10:23:13.704Z,996.91
2022-11-20T10:24:13.684Z,996.87
2022-11-20T10:25:13.663Z,996.83
2022-11-20T10:26:13.661Z,996.82
2022-11-20T10:27:13.667Z,996.82
2022-11-20T10:28:13.625Z,996.84
2022-11-20T10:29:13.614Z,996.75
2022-11-20T10:30:13.607Z,996.73
2022-11-20T10:31:13.596Z,996.71
2022-11-20T10:32:13.585Z,996.74
2022-11-20T10:33:13.591Z,996.73
2022-11-20T10:34:15.879Z,996.71
2022-11-20T10:35:13.547Z,996.69
2022-11-20T10:36:13.522Z,996.68
2022-11-20T10:37:13.532Z,996.65
2022-11-20T10:38:13.494Z,996.69
2022-11-20T10:39:13.491Z,996.71
2022-11-20T10:40:13.473Z,996.67
2022-11-20T10:41:13.463Z,996.65
2022-11-20T10:42:13.453Z,996.69
2022-11-20T10:43:13.413Z,996.70
2022-11-20T10:44:13.401Z,996.67
2022-11-20T10:45:13.412Z,996.67
2022-11-20T10:46:13.384Z,996.64
2022-11-20T10:47:13.371Z,996.66
2022-11-20T10:48:13.374Z,996.71
2022-11-20T10:49:13.352Z,996.71
2022-11-20T10:50:17.597Z,996.72
2022-11-20T10:51:14.343Z,996.70
2022-11-20T10:52:13.458Z,996.69
2022-11-20T10:53:13.302Z,996.68
2022-11-20T10:54:13.533Z,996.66
2022-11-20T10:55:13.272Z,996.66
2022-11-20T10:56:14.021Z,996.68
2022-11-20T10:57:13.811Z,996.65
2022-11-20T10:58:13.243Z,996.62
2022-11-20T10:59:13.222Z,996.59
2022-11-20T11:00:13.222Z,996.55
2022-11-20T11:01:13.261Z,996.56
2022-11-20T11:02:13.175Z,996.54
2022-11-20T11:03:13.211Z,996.54
2022-11-20T11:04:13.161Z,996.52
2022-11-20T11:05:14.527Z,996.54
2022-11-20T11:06:13.142Z,996.51
2022-11-20T11:07:13.165Z,996.47
2022-11-20T11:08:13.193Z,996.47
2022-11-20T11:09:13.148Z,996.48
2022-11-20T11:10:13.198Z,996.47
2022-11-20T11:11:13.062Z,996.42
2022-11-20T11:12:13.023Z,996.43
2022-11-20T11:13:13.052Z,996.44
2022-11-20T11:14:13.014Z,996.42
2022-11-20T11:15:13.011Z,996.37
2022-11-20T11:16:12.989Z,996.35
2022-11-20T11:17:12.991Z,996.30
2022-11-20T11:18:13.020Z,996.28
2022-11-20T11:19:12.982Z,996.28
2022-11-20T11:20:12.932Z,996.28
2022-11-20T11:21:12.931Z,996.30
2022-11-20T11:22:12.901Z,996.29
2022-11-20T11:23:12.982Z,996.27
2022-11-20T11:24:40.446Z,996.30
2022-11-20T11:25:13.872Z,996.26
2022-11-20T11:26:12.860Z,996.26
2022-11-20T11:27:16.880Z,996.24
2022-11-20T11:28:12.842Z,996.22
2022-11-20T11:29:12.820Z,996.17
2022-11-20T11:30:12.801Z,996.19
2022-11-20T11:31:12.782Z,996.18
2022-11-20T11:32:12.773Z,996.16
2022-11-20T11:33:12.877Z,996.21
2022-11-20T11:34:12.744Z,996.17
2022-11-20T11:35:12.741Z,996.19
2022-11-20T11:36:12.732Z,996.12
2022-11-20T11:37:12.712Z,996.16
2022-11-20T11:38:12.743Z,996.15
2022-11-20T11:39:12.691Z,996.13
2022-11-20T11:40:28.064Z,996.11
2022-11-20T11:41:13.708Z,996.13
2022-11-20T11:42:12.652Z,996.09
2022-11-20T11:43:12.652Z,996.04
2022-11-20T11:44:12.618Z,996.07
2022-11-20T11:45:12.620Z,996.06
2022-11-20T11:46:19.697Z,996.03
2022-11-20T11:47:12.577Z,996.00
2022-11-20T11:48:12.586Z,996.02
2022-11-20T11:49:12.568Z,995.97
2022-11-20T11:50:12.741Z,995.98
2022-11-20T11:51:12.535Z,995.97
2022-11-20T11:52:12.516Z,995.98
2022-11-20T11:53:12.577Z,995.97
2022-11-20T11:54:12.489Z,995.94
2022-11-20T11:55:12.478Z,995.94
2022-11-20T11:56:12.507Z,995.91
2022-11-20T11:57:12.450Z,995.85
2022-11-20T11:58:13.433Z,995.87
2022-11-20T11:59:12.446Z,995.90
2022-11-20T12:00:12.406Z,995.93
2022-11-20T12:01:12.397Z,995.88
2022-11-20T12:02:12.415Z,995.89
2022-11-20T12:03:12.420Z,995.85
2022-11-20T12:04:12.355Z,995.86
2022-11-20T12:05:12.347Z,995.83
2022-11-20T12:06:12.336Z,995.79
2022-11-20T12:07:31.417Z,995.79
2022-11-20T12:08:13.344Z,995.73
2022-11-20T12:09:12.313Z,995.72
2022-11-20T12:10:12.278Z,995.71
2022-11-20T12:11:12.268Z,995.71
2022-11-20T12:12:12.246Z,995.70
2022-11-20T12:13:12.261Z,995.70
2022-11-20T12:14:12.239Z,995.67
2022-11-20T12:15:12.214Z,995.67
2022-11-20T12:16:12.196Z,995.66
2022-11-20T12:17:12.197Z,995.65
2022-11-20T12:18:12.176Z,995.62
2022-11-20T12:19:12.187Z,995.62
2022-11-20T12:20:12.148Z,995.60
2022-11-20T12:21:12.153Z,995.61
2022-11-20T12:22:12.136Z,995.60
2022-11-20T12:23:12.113Z,995.57
2022-11-20T12:24:12.096Z,995.57
2022-11-20T12:25:12.097Z,995.57
2022-11-20T12:26:12.078Z,995.52
2022-11-20T12:27:12.063Z,995.47
2022-11-20T12:28:12.045Z,995.50
2022-11-20T12:29:12.038Z,995.51
2022-11-20T12:30:12.064Z,995.49